Timeline UpdatesTrip UpdatesNews PostsPvt PostsTravel TipsAdmin PostsConv PostsFollowed PostsChat RequestsBlog PostsPNR Posts

Disclaimer
Search
 
 
Fri Apr 18, 2014 21:10:00 ISTHomeTrainsΣChainsAtlasPNRForumGalleryNewsFAQTripsMembersLoginFeedback
No Recent News for this Train
Other Trains in the News **new
Latest...
Cancelled from 04.01.2013 to 17.02.2013
Sat Jan 05, 2013 (01:09AM)
⇐ Return Journey: Train# 54642

54641/Delhi Firozpur Passenger (UnReserved)

Sep 11 2013 (12:36PM)
Change Departure Station:
Change Arrival Station:
Post a Train Travel TipPost a Train Travel Tip **new
Post a Comment/Question/Picture/VideoPost a Comment/Question/Picture/Video
Pantry/Catering
✕ NO Pantry Car
✕ NO Catering
RSA - Rake Sharing
Rake Sharing With 14629/30 FZR-LDH Satluj Express and 14601/02 SGNR-FZR Express
Rake/Coach Composition
LOCO-SLRD-GS-GS-GS-GS-GS-GS-GS-GS-GS-GS-GS-GS-GS-GS-SLRD
Loco
TKD WDP-1
News    PNR    Forum    Time-Table    Availability    Fare Chart    Map    Arr/Dep History    Trips    Gallery    ΣChains    X/O    Timeline    
Travel Time: 10h 20m    40 halts    Distance: 316 km    Avg Speed: 30 km/hr
Type: Passenger
Zone: NR/Northern
Departs @ 09:15 (Avg 37m late)
Platform# ???
SMTWTFS
Rohtak Junction/ROK 
Arrives @ 19:35 (Avg 10m late)
Platform# 1
SMTWTFS
Firozpur Cantt. Junction/FZR 

40 halts. 43 intermediate Stations between Rohtak Junction and Firozpur Cantt. Junction

Show ALL intermediate Stations  Show Old Time-Table

#CodeStation NameX/OArrivesAvgDepartsAvgHaltPFDay#KmSpeedElevZoneAddress
1DLIOld Delhi Junction (16)  -07:10+321-70.013219mNRNear Chandni Chowk Metro Station, Delhi NCT
2DKZDelhi KishanGanj (2)  07:23+707:25+72m--1-67.221220mNRSarai Rohilla, Delhi NCT
3VVKPVivekanand Puri Halt (2)  07:30+807:31+81m--1-65.518223mNRSarai Rohilla, Delhi NCT
4DBSIDayabasti  07:35+807:36+91m--1-64.341225mNRZakhira, Delhi NCT
5SSBShakur BastiX  07:42+1207:44+122m--1-60.251216mNRPitampura, Delhi NCT
6MGLPMangolpuri  07:49+2007:51+202m--1-55.939217mNROutter Ring Rd, Delhi NCT
7NNONangloiX  07:56+2007:57+201m--1-52.734219mNRJJ Colony No 1, Delhi NCT
8MQCMundka  08:02+2208:03+221m--1-49.936215mNRMundka, Delhi NCT
9GHEGhevraX  08:08+2208:09+241m--1-46.980214mNRGhevra, Delhi NCT
10BGZBahadurgarh  08:14+2808:15+291m--1-40.280220mNRBahadurgarh, Haryana
11ASEAsaudahX  08:21+3308:22+341m--1-32.245216mNRDelhi-Rohtak Corridor, Haryana
12ROHNRohed Nagar HaltX  08:29+3408:30+341m--1-26.940220mNRDelhi-Rohtak Corridor, Haryana
13SPZSampla  08:37+3408:38+351m--1-22.335222mNRSampla, Haryana
14ISMIsmaila Haryana  08:44+3508:45+351m--1-18.859221mNRNational Highway 10, Haryana
15KRZKharawarX  08:52+3508:53+351m--1-11.970222mNRKharawar, Haryana
16ABOAsthal Bohar Junction (4)  08:58+3809:00+382m--1-6.137223mNRRohtak, Haryana
17ROK»Rohtak Junction (3)»X  09:10+3609:15+375m--10.063220mNRRohtak, Haryana
18SMFSamar Gopalpur  09:25+3909:26+391m--110.666223mNRNH 71, Haryana
19KHVKarainthi  09:33+4009:34+401m--118.333222mNRNH 71, Haryana
20KZHKila ZafargarhX  09:48+3809:49+381m--126.054223mNRNH 71, Haryana
21JNAJulana  09:55+4009:56+401m--131.445226mNRJulana, Haryana
22JJTJai Jai Wanti  10:04+4010:05+401m--137.562227mNRJind, Haryana
23KIUKinanaX  10:12+4110:13+411m--144.736225mNRBrarkhera, Haryana
24BSPHBishanpur HaryanaX  10:22+4110:23+411m--150.019226mNRBishanpur, Haryana
25JINDJind Junction (3)  10:45+3511:00+2915m--157.161222mNR126102., Haryana
26BZOBarsola  11:09+3111:10+311m--166.258224mNRDistrict Jind, Haryana
27UCAUchana  11:20+3211:21+331m--175.853225mNRDistrict Jind, Haryana
28GSOGhaso  11:30+3511:31+351m--183.836231mNRDistrict Jind, Haryana
29NRWNarwana Junction (4)  11:43+3411:50+297m--191.065235mNRWay to Narwana, Haryana
30DHYDharodi  11:57+3111:58+311m--198.654233mNRMDR 111, Haryana
31DTNDhamtan Sahib  12:06+3112:07+311m--1105.846234mNRJind District, Haryana
32TUNTohana (2)  12:21+3112:22+331m--1116.532232mNRTohana, Haryana
33HMQHimmatpura  12:29+3212:30+331m--1120.225228mNRTohana, Haryana
34JHLJakhal JunctionX  12:50+2513:05+2015m--1128.750225mNRJakhal, Haryana
35BRZBareta  13:22+2113:23+221m--1142.951223mNRBareta, Punjab
36DTWDatewas  13:32+2213:33+221m--1150.658225mNRBareta, Punjab
37BLZBudhlada  13:41+2213:42+251m--1158.352223mNRBudhlada, Punjab
38NPXNarindarpura  13:51+2513:52+251m--1166.063224mNRMansa, Punjab
39MSZMansa  14:00+2714:01+291m--1174.429222mNRMansa, Punjab
40SSZSadda Singhwala (1)  14:14+2714:15+271m11180.628216mNRState Highway 12A, Punjab
41KTKLKotli Kalan  14:20+2714:21+271m--1183.076219mNRState Highway 12A, Punjab
42MAURMaur  14:29+2714:30+301m--1193.134220mNRMaur Mandi, Punjab
43MASKMaisar KhanaX  14:45+2614:46+281m--1201.553215mNRState Highway 12A, Punjab
44KTFKot Fatteh  14:54+2814:55+291m--1208.672213mNRBathinda, Punjab
45KZWKatar Singhwala  15:04+2715:05+271m--1219.422211mNRState Highway 17, Punjab
46BTIBathinda Junction (6)X  15:30+2617:15+2105m51228.667208mNRBathinda, Punjab
47GNAGoneana Bhai Jagta (3)  17:26+717:28+92m--1240.949206mNRGoniana, Punjab
48CBXChand BhanX  17:37+917:38+171m--1248.358211mNRJaitu, Punjab
49GJUTGangsar Jaitu (3)  17:45+1917:47+222m--1255.157207mNRJaitu, Punjab
50AJTMAjitgill Matta (1)  17:52+2117:53+211m11259.841209mNRKotkapura Jaitu Rd, Punjab
51RLSRomana Albel Singh (1)  17:58+2117:59+231m11263.298208mNRKotkapura Jaitu Rd, Punjab
52KKPKot Kapura Junction (3)  18:04+2718:08+294m11271.4310mNRKotkapura, Punjab
53GZSGiani Zail Singh SandhwanX  18:16+2818:18+292m--1275.640210mNRDistt Faridkot, Punjab
54FDKFaridkot (3)  18:31+2518:33+262m--1284.145202mNRFaridkot, Punjab
55PKZPipli Pakhi Kalan  18:41+2518:42+251m--1290.163200mNRFaridkot, Punjab
56GHAGolehwala  18:49+2518:51+242m--1297.553201mNRGolehwala, Punjab
57KBUKasu Begu  19:00+2519:02+262m--1305.420198mNRKasu Begu, Punjab
58FZR•Firozpur Cantt. Junction (5)•  19:35+10-11316.4-200mNRFirozpur Cantt 152001, Punjab
Scroll to Top
Scroll to Bottom